Amity, Arkansas
Current Conditions -  °F | °C
As of 3:14 PM on Monday 22 Dec 2014 (Local Time) from KMWT Reporting Station
Overcast Overcast  
Wind Chill: 57°   Ceiling: 2400
Heat Index: 57°   Visibility: 9mi
Dew Point: 52°   Wind: 3mph
Humidity: 83%   Direction: NA
Pressure: 29.53"   Gusts: NA
Location:  34.26°N, 93.46°W
Report Text: KMWT 222114Z AUTO VRB03KT 9SM FEW014 BKN024 OVC048 14/11 A2953 RMK AO2 RAE2056 P0000 T01390111
Loading
Personal Weather Stations






























Interactive Weather Map New forecast layout! Learn more

10-Day Weather Forecast

Advertisements
Track Severe Weather on mobile